sensor_id;sensor_type;location;lat;lon;timestamp;temperature;humidity
25170;DHT22;13129;48.012;10.352;2023-02-28T04:31:02;-3.70;99.90
25170;DHT22;13129;48.012;10.352;2023-02-28T04:33:28;-3.70;99.90
25170;DHT22;13129;48.012;10.352;2023-02-28T04:36:06;-3.60;99.90
25170;DHT22;13129;48.012;10.352;2023-02-28T04:38:35;-3.80;99.90
25170;DHT22;13129;48.012;10.352;2023-02-28T04:41:01;-3.80;99.90
25170;DHT22;13129;48.012;10.352;2023-02-28T04:43:28;-3.80;99.90
25170;DHT22;13129;48.012;10.352;2023-02-28T04:45:55;-3.80;99.90
25170;DHT22;13129;48.012;10.352;2023-02-28T04:48:23;-3.80;99.90
25170;DHT22;13129;48.012;10.352;2023-02-28T04:50:50;-3.90;99.90
25170;DHT22;13129;48.012;10.352;2023-02-28T04:53:16;-3.80;99.90
25170;DHT22;13129;48.012;10.352;2023-02-28T04:55:41;-3.80;99.90
25170;DHT22;13129;48.012;10.352;2023-02-28T04:58:07;-3.80;99.90
25170;DHT22;13129;48.012;10.352;2023-02-28T05:00:32;-3.80;99.90
25170;DHT22;13129;48.012;10.352;2023-02-28T05:02:58;-3.80;99.90
25170;DHT22;13129;48.012;10.352;2023-02-28T05:05:24;-3.80;99.90
25170;DHT22;13129;48.012;10.352;2023-02-28T05:07:49;-3.80;99.90
25170;DHT22;13129;48.012;10.352;2023-02-28T05:10:15;-3.90;99.90
25170;DHT22;13129;48.012;10.352;2023-02-28T05:12:41;-3.80;99.90
25170;DHT22;13129;48.012;10.352;2023-02-28T05:15:07;-3.80;99.90
25170;DHT22;13129;48.012;10.352;2023-02-28T05:17:33;-3.80;99.90
25170;DHT22;13129;48.012;10.352;2023-02-28T05:19:59;-3.90;99.90
25170;DHT22;13129;48.012;10.352;2023-02-28T05:22:24;-3.80;99.90
25170;DHT22;13129;48.012;10.352;2023-02-28T05:24:50;-3.90;99.90
25170;DHT22;13129;48.012;10.352;2023-02-28T05:27:16;-3.90;99.90
25170;DHT22;13129;48.012;10.352;2023-02-28T05:29:41;-3.90;99.90
25170;DHT22;13129;48.012;10.352;2023-02-28T05:32:11;-3.90;99.90
25170;DHT22;13129;48.012;10.352;2023-02-28T05:34:40;-3.90;99.90
25170;DHT22;13129;48.012;10.352;2023-02-28T05:37:13;-3.90;99.90
25170;DHT22;13129;48.012;10.352;2023-02-28T05:39:40;-3.90;99.90
25170;DHT22;13129;48.012;10.352;2023-02-28T05:42:05;-3.90;99.90
25170;DHT22;13129;48.012;10.352;2023-02-28T05:44:32;-3.90;99.90
25170;DHT22;13129;48.012;10.352;2023-02-28T05:46:57;-3.90;99.90
25170;DHT22;13129;48.012;10.352;2023-02-28T05:49:23;-3.90;99.90
25170;DHT22;13129;48.012;10.352;2023-02-28T05:51:49;-3.90;99.90
25170;DHT22;13129;48.012;10.352;2023-02-28T05:54:14;-3.90;99.90
25170;DHT22;13129;48.012;10.352;2023-02-28T05:56:40;-3.90;99.90
25170;DHT22;13129;48.012;10.352;2023-02-28T05:59:09;-4.00;99.90
25170;DHT22;13129;48.012;10.352;2023-02-28T06:01:38;-4.00;99.90
25170;DHT22;13129;48.012;10.352;2023-02-28T06:04:06;-4.00;99.90
25170;DHT22;13129;48.012;10.352;2023-02-28T06:06:32;-3.90;99.90
25170;DHT22;13129;48.012;10.352;2023-02-28T06:08:59;-3.90;99.90
25170;DHT22;13129;48.012;10.352;2023-02-28T06:11:26;-4.00;99.90
25170;DHT22;13129;48.012;10.352;2023-02-28T06:13:56;-3.90;99.90
25170;DHT22;13129;48.012;10.352;2023-02-28T06:16:23;-3.90;99.90
25170;DHT22;13129;48.012;10.352;2023-02-28T06:18:49;-3.90;99.90
25170;DHT22;13129;48.012;10.352;2023-02-28T06:21:15;-3.90;99.90
25170;DHT22;13129;48.012;10.352;2023-02-28T06:23:41;-3.90;99.90
25170;DHT22;13129;48.012;10.352;2023-02-28T06:26:06;-3.80;99.90
25170;DHT22;13129;48.012;10.352;2023-02-28T06:28:32;-3.80;99.90
25170;DHT22;13129;48.012;10.352;2023-02-28T06:30:58;-3.80;99.90
25170;DHT22;13129;48.012;10.352;2023-02-28T06:33:23;-3.80;99.90
25170;DHT22;13129;48.012;10.352;2023-02-28T06:35:51;-3.70;99.90
25170;DHT22;13129;48.012;10.352;2023-02-28T06:38:16;-3.70;99.90
25170;DHT22;13129;48.012;10.352;2023-02-28T06:40:44;-3.70;99.90
25170;DHT22;13129;48.012;10.352;2023-02-28T06:43:10;-3.70;99.90
25170;DHT22;13129;48.012;10.352;2023-02-28T06:45:42;-3.70;99.90
25170;DHT22;13129;48.012;10.352;2023-02-28T06:48:08;-3.70;99.90
25170;DHT22;13129;48.012;10.352;2023-02-28T06:50:35;-3.60;99.90
25170;DHT22;13129;48.012;10.352;2023-02-28T06:53:01;-3.60;99.90
25170;DHT22;13129;48.012;10.352;2023-02-28T06:55:27;-3.60;99.90
25170;DHT22;13129;48.012;10.352;2023-02-28T06:57:52;-3.60;99.90
25170;DHT22;13129;48.012;10.352;2023-02-28T07:00:20;-3.60;99.90
25170;DHT22;13129;48.012;10.352;2023-02-28T07:02:46;-3.50;99.90
25170;DHT22;13129;48.012;10.352;2023-02-28T07:05:12;-3.50;99.90
25170;DHT22;13129;48.012;10.352;2023-02-28T07:07:39;-3.50;99.90
25170;DHT22;13129;48.012;10.352;2023-02-28T07:10:10;-3.40;99.90
25170;DHT22;13129;48.012;10.352;2023-02-28T07:12:37;-3.40;99.90
25170;DHT22;13129;48.012;10.352;2023-02-28T07:15:04;-3.40;99.90
25170;DHT22;13129;48.012;10.352;2023-02-28T07:17:30;-3.30;99.90
25170;DHT22;13129;48.012;10.352;2023-02-28T07:19:55;-3.30;99.90
25170;DHT22;13129;48.012;10.352;2023-02-28T07:22:21;-3.20;99.90
25170;DHT22;13129;48.012;10.352;2023-02-28T07:24:47;-3.30;99.90
25170;DHT22;13129;48.012;10.352;2023-02-28T07:27:13;-3.20;99.90
25170;DHT22;13129;48.012;10.352;2023-02-28T07:29:51;-3.10;99.90
25170;DHT22;13129;48.012;10.352;2023-02-28T07:32:17;-3.10;99.90
25170;DHT22;13129;48.012;10.352;2023-02-28T07:34:44;-3.00;99.90
25170;DHT22;13129;48.012;10.352;2023-02-28T07:37:10;-3.00;99.90
25170;DHT22;13129;48.012;10.352;2023-02-28T07:39:35;-3.00;99.90
25170;DHT22;13129;48.012;10.352;2023-02-28T07:42:04;-3.00;99.90
25170;DHT22;13129;48.012;10.352;2023-02-28T07:44:31;-2.90;99.90
25170;DHT22;13129;48.012;10.352;2023-02-28T07:46:57;-2.90;99.90
25170;DHT22;13129;48.012;10.352;2023-02-28T07:49:23;-2.90;99.90
25170;DHT22;13129;48.012;10.352;2023-02-28T07:51:49;-2.90;99.90
25170;DHT22;13129;48.012;10.352;2023-02-28T07:54:14;-2.90;99.90
25170;DHT22;13129;48.012;10.352;2023-02-28T07:56:40;-2.80;99.90
25170;DHT22;13129;48.012;10.352;2023-02-28T07:59:05;-2.80;99.90
25170;DHT22;13129;48.012;10.352;2023-02-28T08:01:31;-2.80;99.90
25170;DHT22;13129;48.012;10.352;2023-02-28T08:03:56;-2.70;99.90
25170;DHT22;13129;48.012;10.352;2023-02-28T08:06:25;-2.70;99.90
25170;DHT22;13129;48.012;10.352;2023-02-28T08:08:52;-2.60;99.90
25170;DHT22;13129;48.012;10.352;2023-02-28T08:11:18;-2.50;99.90
25170;DHT22;13129;48.012;10.352;2023-02-28T08:13:44;-2.50;99.90
25170;DHT22;13129;48.012;10.352;2023-02-28T08:16:12;-2.40;99.90
25170;DHT22;13129;48.012;10.352;2023-02-28T08:18:42;-2.30;99.90
25170;DHT22;13129;48.012;10.352;2023-02-28T08:21:09;-2.30;99.90
25170;DHT22;13129;48.012;10.352;2023-02-28T08:23:35;-2.20;99.90
25170;DHT22;13129;48.012;10.352;2023-02-28T08:26:01;-2.20;99.90
25170;DHT22;13129;48.012;10.352;2023-02-28T08:28:26;-2.20;99.90
25170;DHT22;13129;48.012;10.352;2023-02-28T08:30:52;-2.10;99.90
25170;DHT22;13129;48.012;10.352;2023-02-28T08:33:18;-2.00;99.90
25170;DHT22;13129;48.012;10.352;2023-02-28T08:35:43;-1.90;99.90
25170;DHT22;13129;48.012;10.352;2023-02-28T08:38:09;-1.90;99.90
25170;DHT22;13129;48.012;10.352;2023-02-28T08:40:34;-1.80;99.90
25170;DHT22;13129;48.012;10.352;2023-02-28T08:43:00;-1.70;99.90
25170;DHT22;13129;48.012;10.352;2023-02-28T08:45:26;-1.70;99.90
25170;DHT22;13129;48.012;10.352;2023-02-28T08:47:51;-1.60;99.90
25170;DHT22;13129;48.012;10.352;2023-02-28T08:50:20;-1.60;99.90
25170;DHT22;13129;48.012;10.352;2023-02-28T08:52:45;-1.70;99.90
25170;DHT22;13129;48.012;10.352;2023-02-28T08:55:11;-1.70;99.90
25170;DHT22;13129;48.012;10.352;2023-02-28T08:57:36;-1.60;99.90
25170;DHT22;13129;48.012;10.352;2023-02-28T09:00:03;-1.50;99.90
25170;DHT22;13129;48.012;10.352;2023-02-28T09:02:33;-1.50;99.90
25170;DHT22;13129;48.012;10.352;2023-02-28T09:04:58;-1.50;99.90
25170;DHT22;13129;48.012;10.352;2023-02-28T09:07:25;-1.40;99.90
25170;DHT22;13129;48.012;10.352;2023-02-28T09:09:50;-1.40;99.90
25170;DHT22;13129;48.012;10.352;2023-02-28T09:12:21;-1.40;99.90
25170;DHT22;13129;48.012;10.352;2023-02-28T09:14:47;-1.50;99.90
25170;DHT22;13129;48.012;10.352;2023-02-28T09:17:13;-1.50;99.90
25170;DHT22;13129;48.012;10.352;2023-02-28T09:19:39;-1.70;99.90
25170;DHT22;13129;48.012;10.352;2023-02-28T09:22:04;-1.70;99.90
25170;DHT22;13129;48.012;10.352;2023-02-28T09:24:30;-1.70;99.90
25170;DHT22;13129;48.012;10.352;2023-02-28T09:26:57;-1.70;99.90
25170;DHT22;13129;48.012;10.352;2023-02-28T09:29:22;-1.50;99.90
25170;DHT22;13129;48.012;10.352;2023-02-28T09:31:48;-1.50;99.90
25170;DHT22;13129;48.012;10.352;2023-02-28T09:34:13;-1.30;99.90
25170;DHT22;13129;48.012;10.352;2023-02-28T09:36:39;-1.20;99.90
25170;DHT22;13129;48.012;10.352;2023-02-28T09:39:05;-1.00;99.90
25170;DHT22;13129;48.012;10.352;2023-02-28T09:41:41;-0.90;99.90
25170;DHT22;13129;48.012;10.352;2023-02-28T09:44:22;-0.80;99.90
25170;DHT22;13129;48.012;10.352;2023-02-28T09:46:54;-0.70;99.90
25170;DHT22;13129;48.012;10.352;2023-02-28T09:49:24;-0.60;99.90
25170;DHT22;13129;48.012;10.352;2023-02-28T09:52:12;-0.70;99.90
25170;DHT22;13129;48.012;10.352;2023-02-28T09:54:39;-0.60;99.90
25170;DHT22;13129;48.012;10.352;2023-02-28T10:03:31;-0.70;99.90
25170;DHT22;13129;48.012;10.352;2023-02-28T10:08:42;-0.60;99.90
25170;DHT22;13129;48.012;10.352;2023-02-28T10:11:15;-0.60;99.90
25170;DHT22;13129;48.012;10.352;2023-02-28T10:16:38;-0.30;99.90
25170;DHT22;13129;48.012;10.352;2023-02-28T10:19:25;-0.20;99.90
25170;DHT22;13129;48.012;10.352;2023-02-28T10:22:05;0.00;99.90
25170;DHT22;13129;48.012;10.352;2023-02-28T10:24:46;0.10;99.90
25170;DHT22;13129;48.012;10.352;2023-02-28T10:27:17;0.30;99.90
25170;DHT22;13129;48.012;10.352;2023-02-28T10:29:51;0.40;99.90
25170;DHT22;13129;48.012;10.352;2023-02-28T10:32:20;0.50;99.90
25170;DHT22;13129;48.012;10.352;2023-02-28T10:37:38;0.20;99.90
25170;DHT22;13129;48.012;10.352;2023-02-28T10:40:06;0.20;99.90
25170;DHT22;13129;48.012;10.352;2023-02-28T10:42:33;0.10;99.90
25170;DHT22;13129;48.012;10.352;2023-02-28T10:45:16;0.10;99.90
25170;DHT22;13129;48.012;10.352;2023-02-28T10:50:32;0.00;99.90
25170;DHT22;13129;48.012;10.352;2023-02-28T10:55:36;0.00;99.90
25170;DHT22;13129;48.012;10.352;2023-02-28T10:58:03;0.00;99.90
25170;DHT22;13129;48.012;10.352;2023-02-28T11:00:39;0.10;99.90
25170;DHT22;13129;48.012;10.352;2023-02-28T11:03:32;0.20;99.90
25170;DHT22;13129;48.012;10.352;2023-02-28T11:06:05;0.10;99.90
25170;DHT22;13129;48.012;10.352;2023-02-28T11:08:31;0.10;99.90
25170;DHT22;13129;48.012;10.352;2023-02-28T11:11:00;0.30;99.90
25170;DHT22;13129;48.012;10.352;2023-02-28T11:13:34;0.30;99.90
25170;DHT22;13129;48.012;10.352;2023-02-28T11:16:06;0.40;99.90
25170;DHT22;13129;48.012;10.352;2023-02-28T11:18:52;0.50;99.90
25170;DHT22;13129;48.012;10.352;2023-02-28T11:21:31;0.60;99.90
25170;DHT22;13129;48.012;10.352;2023-02-28T11:24:18;0.60;99.90
25170;DHT22;13129;48.012;10.352;2023-02-28T11:26:48;0.50;99.90
25170;DHT22;13129;48.012;10.352;2023-02-28T11:29:34;0.50;99.90
25170;DHT22;13129;48.012;10.352;2023-02-28T11:34:37;0.60;99.90
25170;DHT22;13129;48.012;10.352;2023-02-28T11:37:04;0.60;99.90
25170;DHT22;13129;48.012;10.352;2023-02-28T11:39:32;0.70;99.90
25170;DHT22;13129;48.012;10.352;2023-02-28T11:42:07;0.70;99.90
25170;DHT22;13129;48.012;10.352;2023-02-28T11:44:48;0.70;99.90
25170;DHT22;13129;48.012;10.352;2023-02-28T11:52:46;0.80;99.90
25170;DHT22;13129;48.012;10.352;2023-02-28T12:06:19;0.70;99.90
25170;DHT22;13129;48.012;10.352;2023-02-28T12:12:47;0.80;99.90
25170;DHT22;13129;48.012;10.352;2023-02-28T12:17:49;1.00;99.90
25170;DHT22;13129;48.012;10.352;2023-02-28T12:28:52;1.20;99.90
25170;DHT22;13129;48.012;10.352;2023-02-28T12:31:25;1.20;99.90
25170;DHT22;13129;48.012;10.352;2023-02-28T12:33:55;1.00;99.90
25170;DHT22;13129;48.012;10.352;2023-02-28T12:36:22;1.00;99.90
25170;DHT22;13129;48.012;10.352;2023-02-28T12:38:56;1.00;99.90
25170;DHT22;13129;48.012;10.352;2023-02-28T12:41:47;1.20;99.90
25170;DHT22;13129;48.012;10.352;2023-02-28T12:44:39;1.10;99.90
25170;DHT22;13129;48.012;10.352;2023-02-28T12:47:13;1.10;99.90
25170;DHT22;13129;48.012;10.352;2023-02-28T12:49:54;1.00;99.90
25170;DHT22;13129;48.012;10.352;2023-02-28T12:53:01;1.10;99.90
25170;DHT22;13129;48.012;10.352;2023-02-28T13:06:43;0.80;99.90
25170;DHT22;13129;48.012;10.352;2023-02-28T13:09:18;0.90;99.90
25170;DHT22;13129;48.012;10.352;2023-02-28T13:11:49;0.90;99.90
25170;DHT22;13129;48.012;10.352;2023-02-28T13:16:56;0.90;99.90
25170;DHT22;13129;48.012;10.352;2023-02-28T13:19:24;1.00;99.90
25170;DHT22;13129;48.012;10.352;2023-02-28T13:21:51;1.00;99.90
25170;DHT22;13129;48.012;10.352;2023-02-28T13:24:51;1.00;99.90
25170;DHT22;13129;48.012;10.352;2023-02-28T13:27:32;1.00;99.90
25170;DHT22;13129;48.012;10.352;2023-02-28T13:29:58;1.00;99.90
25170;DHT22;13129;48.012;10.352;2023-02-28T13:32:34;1.10;99.90
25170;DHT22;13129;48.012;10.352;2023-02-28T13:35:38;1.20;99.90
25170;DHT22;13129;48.012;10.352;2023-02-28T13:38:24;1.30;99.90
25170;DHT22;13129;48.012;10.352;2023-02-28T13:40:50;1.30;99.90
25170;DHT22;13129;48.012;10.352;2023-02-28T13:43:17;1.10;99.90
25170;DHT22;13129;48.012;10.352;2023-02-28T13:46:08;1.20;99.90
25170;DHT22;13129;48.012;10.352;2023-02-28T13:48:35;1.20;99.90
25170;DHT22;13129;48.012;10.352;2023-02-28T13:51:28;1.20;99.90
25170;DHT22;13129;48.012;10.352;2023-02-28T13:59:59;1.00;99.90
25170;DHT22;13129;48.012;10.352;2023-02-28T14:02:45;1.00;99.90
25170;DHT22;13129;48.012;10.352;2023-02-28T14:05:19;1.10;99.90
25170;DHT22;13129;48.012;10.352;2023-02-28T14:07:53;1.10;99.90
25170;DHT22;13129;48.012;10.352;2023-02-28T14:10:30;1.10;99.90
25170;DHT22;13129;48.012;10.352;2023-02-28T14:13:00;1.10;99.90
25170;DHT22;13129;48.012;10.352;2023-02-28T14:18:00;1.00;99.90
25170;DHT22;13129;48.012;10.352;2023-02-28T14:20:31;1.00;99.90
25170;DHT22;13129;48.012;10.352;2023-02-28T14:29:37;1.20;99.90
25170;DHT22;13129;48.012;10.352;2023-02-28T14:32:24;1.20;99.90
25170;DHT22;13129;48.012;10.352;2023-02-28T14:37:38;1.30;99.90
25170;DHT22;13129;48.012;10.352;2023-02-28T14:40:15;1.20;99.90
25170;DHT22;13129;48.012;10.352;2023-02-28T14:42:57;1.20;99.90
25170;DHT22;13129;48.012;10.352;2023-02-28T14:45:24;1.40;99.90
25170;DHT22;13129;48.012;10.352;2023-02-28T14:47:51;1.30;99.90
25170;DHT22;13129;48.012;10.352;2023-02-28T14:50:24;1.30;99.90
25170;DHT22;13129;48.012;10.352;2023-02-28T14:52:56;1.20;99.90
25170;DHT22;13129;48.012;10.352;2023-02-28T14:55:34;1.20;99.90
25170;DHT22;13129;48.012;10.352;2023-02-28T14:58:05;1.20;99.90
25170;DHT22;13129;48.012;10.352;2023-02-28T15:00:34;1.20;99.90
25170;DHT22;13129;48.012;10.352;2023-02-28T15:03:11;1.10;99.90
25170;DHT22;13129;48.012;10.352;2023-02-28T15:05:47;1.10;99.90
25170;DHT22;13129;48.012;10.352;2023-02-28T15:08:16;1.30;99.90
25170;DHT22;13129;48.012;10.352;2023-02-28T15:11:03;1.30;99.90
25170;DHT22;13129;48.012;10.352;2023-02-28T15:16:11;1.50;99.90
25170;DHT22;13129;48.012;10.352;2023-02-28T15:21:15;1.40;99.90
25170;DHT22;13129;48.012;10.352;2023-02-28T15:23:45;1.40;99.90
25170;DHT22;13129;48.012;10.352;2023-02-28T15:26:21;1.30;99.90
25170;DHT22;13129;48.012;10.352;2023-02-28T15:28:52;1.30;99.90
25170;DHT22;13129;48.012;10.352;2023-02-28T15:31:25;1.20;99.90
25170;DHT22;13129;48.012;10.352;2023-02-28T15:33:56;1.30;99.90
25170;DHT22;13129;48.012;10.352;2023-02-28T15:36:29;1.30;99.90
25170;DHT22;13129;48.012;10.352;2023-02-28T15:38:56;1.30;99.90
25170;DHT22;13129;48.012;10.352;2023-02-28T15:41:28;1.30;99.90
25170;DHT22;13129;48.012;10.352;2023-02-28T15:44:14;1.30;99.90
25170;DHT22;13129;48.012;10.352;2023-02-28T15:46:44;1.10;99.90
25170;DHT22;13129;48.012;10.352;2023-02-28T15:49:19;1.10;99.90
25170;DHT22;13129;48.012;10.352;2023-02-28T15:51:49;1.10;99.90
25170;DHT22;13129;48.012;10.352;2023-02-28T15:54:21;1.00;99.90
25170;DHT22;13129;48.012;10.352;2023-02-28T15:56:53;0.90;99.90
25170;DHT22;13129;48.012;10.352;2023-02-28T15:59:28;0.90;99.90
25170;DHT22;13129;48.012;10.352;2023-02-28T16:04:56;0.80;99.90
25170;DHT22;13129;48.012;10.352;2023-02-28T16:07:22;0.70;99.90
25170;DHT22;13129;48.012;10.352;2023-02-28T16:09:48;0.70;99.90
25170;DHT22;13129;48.012;10.352;2023-02-28T16:12:15;0.60;99.90
25170;DHT22;13129;48.012;10.352;2023-02-28T16:14:41;0.60;99.90
25170;DHT22;13129;48.012;10.352;2023-02-28T16:17:23;0.60;99.90
25170;DHT22;13129;48.012;10.352;2023-02-28T16:19:49;0.60;99.90
25170;DHT22;13129;48.012;10.352;2023-02-28T16:22:15;0.60;99.90
25170;DHT22;13129;48.012;10.352;2023-02-28T16:24:42;0.50;99.90
25170;DHT22;13129;48.012;10.352;2023-02-28T16:27:34;0.40;99.90
25170;DHT22;13129;48.012;10.352;2023-02-28T16:30:01;0.30;99.90
25170;DHT22;13129;48.012;10.352;2023-02-28T16:32:29;0.20;99.90
25170;DHT22;13129;48.012;10.352;2023-02-28T16:34:55;0.10;99.90
25170;DHT22;13129;48.012;10.352;2023-02-28T16:37:21;0.10;99.90
25170;DHT22;13129;48.012;10.352;2023-02-28T16:39:47;0.00;99.90
25170;DHT22;13129;48.012;10.352;2023-02-28T16:42:33;-0.20;99.90
25170;DHT22;13129;48.012;10.352;2023-02-28T16:45:00;-0.30;99.90
25170;DHT22;13129;48.012;10.352;2023-02-28T16:47:29;-0.40;99.90
25170;DHT22;13129;48.012;10.352;2023-02-28T16:49:57;-0.60;99.90
25170;DHT22;13129;48.012;10.352;2023-02-28T16:52:22;-0.70;99.90
25170;DHT22;13129;48.012;10.352;2023-02-28T16:54:48;-0.80;99.90
25170;DHT22;13129;48.012;10.352;2023-02-28T16:57:21;-0.90;99.90
25170;DHT22;13129;48.012;10.352;2023-02-28T16:59:49;-1.10;99.90
25170;DHT22;13129;48.012;10.352;2023-02-28T17:02:18;-1.20;99.90
25170;DHT22;13129;48.012;10.352;2023-02-28T17:04:44;-1.20;99.90
25170;DHT22;13129;48.012;10.352;2023-02-28T17:07:15;-1.30;99.90
25170;DHT22;13129;48.012;10.352;2023-02-28T17:09:42;-1.40;99.90
25170;DHT22;13129;48.012;10.352;2023-02-28T17:12:09;-1.50;99.90
25170;DHT22;13129;48.012;10.352;2023-02-28T17:14:34;-1.60;99.90
25170;DHT22;13129;48.012;10.352;2023-02-28T17:17:00;-1.70;99.90
25170;DHT22;13129;48.012;10.352;2023-02-28T17:19:26;-1.70;99.90
25170;DHT22;13129;48.012;10.352;2023-02-28T17:21:53;-1.70;99.90
25170;DHT22;13129;48.012;10.352;2023-02-28T17:24:19;-1.80;99.90
25170;DHT22;13129;48.012;10.352;2023-02-28T17:26:44;-1.80;99.90
25170;DHT22;13129;48.012;10.352;2023-02-28T17:29:21;-1.90;99.90
25170;DHT22;13129;48.012;10.352;2023-02-28T17:31:47;-2.00;99.90
25170;DHT22;13129;48.012;10.352;2023-02-28T17:34:13;-2.00;99.90
25170;DHT22;13129;48.012;10.352;2023-02-28T17:36:46;-2.10;99.90
25170;DHT22;13129;48.012;10.352;2023-02-28T17:39:13;-2.10;99.90
25170;DHT22;13129;48.012;10.352;2023-02-28T17:41:40;-2.10;99.90
25170;DHT22;13129;48.012;10.352;2023-02-28T17:44:07;-2.20;99.90
25170;DHT22;13129;48.012;10.352;2023-02-28T17:46:33;-2.20;99.90
25170;DHT22;13129;48.012;10.352;2023-02-28T17:48:59;-2.30;99.90
25170;DHT22;13129;48.012;10.352;2023-02-28T17:51:25;-2.40;99.90
25170;DHT22;13129;48.012;10.352;2023-02-28T17:53:51;-2.50;99.90
25170;DHT22;13129;48.012;10.352;2023-02-28T17:56:23;-2.60;99.90
25170;DHT22;13129;48.012;10.352;2023-02-28T17:58:50;-2.60;99.90
25170;DHT22;13129;48.012;10.352;2023-02-28T18:01:16;-2.60;99.90
25170;DHT22;13129;48.012;10.352;2023-02-28T18:03:42;-2.70;99.90
25170;DHT22;13129;48.012;10.352;2023-02-28T18:06:17;-2.70;99.90
25170;DHT22;13129;48.012;10.352;2023-02-28T18:08:44;-2.80;99.90
25170;DHT22;13129;48.012;10.352;2023-02-28T18:11:10;-2.90;99.90
25170;DHT22;13129;48.012;10.352;2023-02-28T18:13:49;-2.90;99.90
25170;DHT22;13129;48.012;10.352;2023-02-28T18:16:15;-2.90;99.90
25170;DHT22;13129;48.012;10.352;2023-02-28T18:18:41;-2.90;99.90
25170;DHT22;13129;48.012;10.352;2023-02-28T18:21:08;-3.00;99.90
25170;DHT22;13129;48.012;10.352;2023-02-28T18:23:34;-2.90;99.90
25170;DHT22;13129;48.012;10.352;2023-02-28T18:26:00;-2.90;99.90
25170;DHT22;13129;48.012;10.352;2023-02-28T18:28:26;-3.00;99.90
25170;DHT22;13129;48.012;10.352;2023-02-28T18:30:52;-3.00;99.90
25170;DHT22;13129;48.012;10.352;2023-02-28T18:33:18;-3.10;99.90
25170;DHT22;13129;48.012;10.352;2023-02-28T18:35:44;-3.10;99.90
25170;DHT22;13129;48.012;10.352;2023-02-28T18:38:13;-3.20;99.90
25170;DHT22;13129;48.012;10.352;2023-02-28T18:40:40;-3.20;99.90
25170;DHT22;13129;48.012;10.352;2023-02-28T18:43:08;-3.30;99.90
25170;DHT22;13129;48.012;10.352;2023-02-28T18:45:36;-3.30;99.90
25170;DHT22;13129;48.012;10.352;2023-02-28T18:48:01;-3.40;99.90
25170;DHT22;13129;48.012;10.352;2023-02-28T18:50:27;-3.40;99.90
25170;DHT22;13129;48.012;10.352;2023-02-28T18:52:53;-3.40;99.90
25170;DHT22;13129;48.012;10.352;2023-02-28T18:55:19;-3.50;99.90
25170;DHT22;13129;48.012;10.352;2023-02-28T18:57:46;-3.60;99.90
25170;DHT22;13129;48.012;10.352;2023-02-28T19:00:14;-3.60;99.90
25170;DHT22;13129;48.012;10.352;2023-02-28T19:02:40;-3.60;99.90
25170;DHT22;13129;48.012;10.352;2023-02-28T19:05:07;-3.50;99.90
25170;DHT22;13129;48.012;10.352;2023-02-28T19:07:34;-3.50;99.90
25170;DHT22;13129;48.012;10.352;2023-02-28T19:10:00;-3.60;99.90
25170;DHT22;13129;48.012;10.352;2023-02-28T19:12:26;-3.60;99.90
25170;DHT22;13129;48.012;10.352;2023-02-28T19:14:52;-3.60;99.90
25170;DHT22;13129;48.012;10.352;2023-02-28T19:17:17;-3.60;99.90
25170;DHT22;13129;48.012;10.352;2023-02-28T19:19:43;-3.60;99.90
25170;DHT22;13129;48.012;10.352;2023-02-28T19:22:09;-3.50;99.90
25170;DHT22;13129;48.012;10.352;2023-02-28T19:24:35;-3.40;99.90
25170;DHT22;13129;48.012;10.352;2023-02-28T19:27:01;-3.40;99.90
25170;DHT22;13129;48.012;10.352;2023-02-28T19:29:33;-3.30;99.90
25170;DHT22;13129;48.012;10.352;2023-02-28T19:31:58;-3.20;99.90
25170;DHT22;13129;48.012;10.352;2023-02-28T19:34:24;-3.20;99.90
25170;DHT22;13129;48.012;10.352;2023-02-28T19:36:50;-3.10;99.90
25170;DHT22;13129;48.012;10.352;2023-02-28T19:39:15;-3.00;99.90
25170;DHT22;13129;48.012;10.352;2023-02-28T19:41:43;-3.00;99.90
25170;DHT22;13129;48.012;10.352;2023-02-28T19:44:09;-3.00;99.90
25170;DHT22;13129;48.012;10.352;2023-02-28T19:46:34;-2.80;99.90
25170;DHT22;13129;48.012;10.352;2023-02-28T19:49:00;-2.80;99.90
25170;DHT22;13129;48.012;10.352;2023-02-28T19:51:26;-2.80;99.90
25170;DHT22;13129;48.012;10.352;2023-02-28T19:53:53;-2.70;99.90
25170;DHT22;13129;48.012;10.352;2023-02-28T19:56:19;-2.70;99.90
25170;DHT22;13129;48.012;10.352;2023-02-28T19:58:45;-2.60;99.90
25170;DHT22;13129;48.012;10.352;2023-02-28T20:01:13;-2.60;99.90
25170;DHT22;13129;48.012;10.352;2023-02-28T20:03:39;-2.50;99.90
25170;DHT22;13129;48.012;10.352;2023-02-28T20:06:08;-2.50;99.90
25170;DHT22;13129;48.012;10.352;2023-02-28T20:08:35;-2.50;99.90
25170;DHT22;13129;48.012;10.352;2023-02-28T20:11:02;-2.50;99.90
25170;DHT22;13129;48.012;10.352;2023-02-28T20:13:28;-2.40;99.90
25170;DHT22;13129;48.012;10.352;2023-02-28T20:15:58;-2.30;99.90
25170;DHT22;13129;48.012;10.352;2023-02-28T20:18:23;-2.30;99.90
25170;DHT22;13129;48.012;10.352;2023-02-28T20:20:49;-2.20;99.90
25170;DHT22;13129;48.012;10.352;2023-02-28T20:23:15;-2.20;99.90
25170;DHT22;13129;48.012;10.352;2023-02-28T20:25:41;-2.20;99.90
25170;DHT22;13129;48.012;10.352;2023-02-28T20:28:07;-2.10;99.90
25170;DHT22;13129;48.012;10.352;2023-02-28T20:30:33;-2.10;99.90
25170;DHT22;13129;48.012;10.352;2023-02-28T20:32:58;-2.10;99.90
25170;DHT22;13129;48.012;10.352;2023-02-28T20:35:24;-2.10;99.90
25170;DHT22;13129;48.012;10.352;2023-02-28T20:37:50;-2.00;99.90
25170;DHT22;13129;48.012;10.352;2023-02-28T20:40:15;-2.00;99.90
25170;DHT22;13129;48.012;10.352;2023-02-28T20:42:41;-2.00;99.90
25170;DHT22;13129;48.012;10.352;2023-02-28T20:45:07;-1.90;99.90
25170;DHT22;13129;48.012;10.352;2023-02-28T20:47:33;-1.90;99.90
25170;DHT22;13129;48.012;10.352;2023-02-28T20:49:58;-1.90;99.90
25170;DHT22;13129;48.012;10.352;2023-02-28T20:52:24;-1.90;99.90
25170;DHT22;13129;48.012;10.352;2023-02-28T20:54:50;-1.90;99.90
25170;DHT22;13129;48.012;10.352;2023-02-28T20:57:15;-1.90;99.90
25170;DHT22;13129;48.012;10.352;2023-02-28T20:59:41;-1.90;99.90
25170;DHT22;13129;48.012;10.352;2023-02-28T21:02:08;-1.80;99.90
25170;DHT22;13129;48.012;10.352;2023-02-28T21:04:34;-1.90;99.90
25170;DHT22;13129;48.012;10.352;2023-02-28T21:06:59;-1.80;99.90
25170;DHT22;13129;48.012;10.352;2023-02-28T21:09:25;-1.80;99.90
25170;DHT22;13129;48.012;10.352;2023-02-28T21:11:52;-1.80;99.90
25170;DHT22;13129;48.012;10.352;2023-02-28T21:14:19;-1.80;99.90
25170;DHT22;13129;48.012;10.352;2023-02-28T21:16:45;-1.70;99.90
25170;DHT22;13129;48.012;10.352;2023-02-28T21:19:11;-1.70;99.90
25170;DHT22;13129;48.012;10.352;2023-02-28T21:21:40;-1.70;99.90
25170;DHT22;13129;48.012;10.352;2023-02-28T21:24:12;-1.70;99.90
25170;DHT22;13129;48.012;10.352;2023-02-28T21:26:39;-1.70;99.90
25170;DHT22;13129;48.012;10.352;2023-02-28T21:29:06;-1.60;99.90
25170;DHT22;13129;48.012;10.352;2023-02-28T21:31:34;-1.70;99.90
25170;DHT22;13129;48.012;10.352;2023-02-28T21:34:02;-1.70;99.90
25170;DHT22;13129;48.012;10.352;2023-02-28T21:36:30;-1.70;99.90